Time;durP1;ratioP1;P1;durP2;ratioP2;P2;SDS_P1;SDS_P2;PMS_P1;PMS_P2;Temp;Humidity;BMP_temperature;BMP_pressure;BME280_temperature;BME280_humidity;BME280_pressure;Samples;Min_cycle;Max_cycle;Signal;HPM_P1;HPM_P2
2021/12/24 00:02:12;;;;;;;;;;;;;;;;;;5023603;28;19913;-80
2021/12/24 00:04:37;;;;;;;;;;;;;;;;;;5001792;28;20493;-81
2021/12/24 00:07:03;;;;;;;;;;;;;;;;;;5035808;28;20012;-81
2021/12/24 00:09:32;;;;;;;;;;;;;;;;;;5031146;28;19913;-81
2021/12/24 00:12:03;;;;;;;;;;;;;;;;;;5036809;28;20011;-82
2021/12/24 00:14:30;;;;;;;;;;;;;;;;;;5036908;28;19917;-83
2021/12/24 00:16:59;;;;;;;;;;;;;;;;;;5038898;28;20401;-83
2021/12/24 00:35:36;;;;;;;;;;;;;;;;;;5035480;28;19979;-83
2021/12/24 00:38:05;;;;;;;;;;;;;;;;;;5035602;28;19931;-83
2021/12/24 00:40:34;;;;;;;;;;;;;;;;;;5019200;28;20370;-83
2021/12/24 00:43:00;;;;;;;;;;;;;;;;;;5034219;28;19983;-83
2021/12/24 00:45:27;;;;;;;;;;;;;;;;;;5035687;28;20571;-83
2021/12/24 00:47:54;;;;;;;;;;;;;;;;;;5015857;28;20004;-85
2021/12/24 00:50:23;;;;;;;;;;;;;;;;;;5020243;28;19917;-85
2021/12/24 00:52:58;;;;;;;;;;;;;;;;;;5044509;28;20278;-84
2021/12/24 00:55:30;;;;;;;;;;;;;;;;;;5036573;28;19948;-83
2021/12/24 00:58:01;;;;;;;;;;;;;;;;;;5035643;28;19956;-83
2021/12/24 01:00:37;;;;;;;;;;;;;;;;;;5019397;28;20003;-83
2021/12/24 01:03:03;;;;;;;;;;;;;;;;;;5036347;28;20331;-83
2021/12/24 01:05:29;;;;;;;;;;;;;;;;;;5036523;28;20365;-83
2021/12/24 01:07:54;;;;;;;;;;;;;;;;;;5036165;28;19913;-83
2021/12/24 01:10:32;;;;;;;;;;;;;;;;;;5035920;28;19916;-82
2021/12/24 01:12:58;;;;;;;;;;;;;;;;;;5020579;28;19953;-81
2021/12/24 01:15:23;;;;;;;;;;;;;;;;;;5034947;28;19913;-82
2021/12/24 01:18:01;;;;;;;;;;;;;;;;;;5035744;28;19932;-83
2021/12/24 01:20:38;;;;;;;;;;;;;;;;;;5035709;28;19925;-83
2021/12/24 01:25:54;;;;;;;;;;;;;;;;;;5035289;28;20274;-83
2021/12/24 01:39:27;;;;;;;;;;;;;;;;;;5034447;28;19991;-82
2021/12/24 01:44:36;;;;;;;;;;;;;;;;;;5034516;28;20023;-83
2021/12/24 01:47:02;;;;;;;;;;;;;;;;;;5034205;28;19960;-83
2021/12/24 01:49:28;;;;;;;;;;;;;;;;;;5035096;28;19921;-84
2021/12/24 01:51:53;;;;;;;;;;;;;;;;;;5034403;28;19917;-83
2021/12/24 01:54:19;;;;;;;;;;;;;;;;;;5033382;28;19956;-83
2021/12/24 01:56:48;;;;;;;;;;;;;;;;;;5033861;28;20428;-83
2021/12/24 01:59:14;;;;;;;;;;;;;;;;;;5033837;28;19917;-83
2021/12/24 02:01:41;;;;;;;;;;;;;;;;;;5035063;28;19975;-82
2021/12/24 02:04:07;;;;;;;;;;;;;;;;;;5034783;28;19920;-83
2021/12/24 02:06:32;;;;;;;;;;;;;;;;;;5034663;28;20035;-82
2021/12/24 02:08:57;;;;;;;;;;;;;;;;;;5034725;28;19917;-82
2021/12/24 02:11:23;;;;;;;;;;;;;;;;;;5033554;28;19961;-83
2021/12/24 02:13:48;;;;;;;;;;;;;;;;;;5034744;28;19916;-83
2021/12/24 02:29:57;;;;;;;;;;;;;;;;;;5034324;28;19932;-83
2021/12/24 02:32:22;;;;;;;;;;;;;;;;;;5033525;28;20254;-83
2021/12/24 02:34:47;;;;;;;;;;;;;;;;;;5033095;28;19917;-81
2021/12/24 02:37:13;;;;;;;;;;;;;;;;;;5033162;28;19921;-82
2021/12/24 02:39:38;;;;;;;;;;;;;;;;;;5033023;28;19921;-83
2021/12/24 02:42:17;;;;;;;;;;;;;;;;;;5033602;28;19913;-83
2021/12/24 02:44:45;;;;;;;;;;;;;;;;;;5033937;28;20274;-83
2021/12/24 02:55:01;;;;;;;;;;;;;;;;;;5033813;28;20384;-84
2021/12/24 02:57:28;;;;;;;;;;;;;;;;;;5034072;28;20005;-83
2021/12/24 03:00:02;;;;;;;;;;;;;;;;;;5032884;28;19932;-84
2021/12/24 03:02:28;;;;;;;;;;;;;;;;;;5028426;28;20008;-84
2021/12/24 03:04:53;;;;;;;;;;;;;;;;;;5028960;28;20450;-85
2021/12/24 03:07:18;;;;;;;;;;;;;;;;;;5020976;28;20278;-84
2021/12/24 03:09:46;;;;;;;;;;;;;;;;;;5027305;28;19917;-85
2021/12/24 03:12:11;;;;;;;;;;;;;;;;;;5031532;28;19925;-84
2021/12/24 03:14:36;;;;;;;;;;;;;;;;;;5032644;28;19921;-84
2021/12/24 03:17:07;;;;;;;;;;;;;;;;;;5033681;28;19967;-84
2021/12/24 03:19:33;;;;;;;;;;;;;;;;;;5034112;28;19925;-83
2021/12/24 03:22:10;;;;;;;;;;;;;;;;;;5033731;28;19924;-84
2021/12/24 03:24:37;;;;;;;;;;;;;;;;;;5032977;28;20270;-83
2021/12/24 03:27:06;;;;;;;;;;;;;;;;;;5033717;28;19925;-84
2021/12/24 03:29:31;;;;;;;;;;;;;;;;;;5032964;28;19917;-84
2021/12/24 03:31:56;;;;;;;;;;;;;;;;;;5032953;28;20008;-84
2021/12/24 03:34:22;;;;;;;;;;;;;;;;;;5032611;28;20338;-84
2021/12/24 03:36:47;;;;;;;;;;;;;;;;;;5033482;28;20377;-83
2021/12/24 03:39:13;;;;;;;;;;;;;;;;;;5033354;28;19921;-84
2021/12/24 03:41:38;;;;;;;;;;;;;;;;;;5016259;28;20030;-84
2021/12/24 03:44:06;;;;;;;;;;;;;;;;;;5032094;28;19921;-84
2021/12/24 03:46:41;;;;;;;;;;;;;;;;;;5033371;28;19961;-83
2021/12/24 03:49:18;;;;;;;;;;;;;;;;;;5036102;28;19920;-84
2021/12/24 03:56:52;;;;;;;;;;;;;;;;;;5033960;28;20053;-85
2021/12/24 03:59:17;;;;;;;;;;;;;;;;;;5032852;28;19964;-85
2021/12/24 04:01:42;;;;;;;;;;;;;;;;;;5032684;28;19924;-84
2021/12/24 04:04:08;;;;;;;;;;;;;;;;;;5032400;28;19917;-85
2021/12/24 04:06:33;;;;;;;;;;;;;;;;;;5032541;28;20259;-84
2021/12/24 04:08:58;;;;;;;;;;;;;;;;;;5033177;28;19990;-84
2021/12/24 04:11:26;;;;;;;;;;;;;;;;;;5033431;28;20257;-84
2021/12/24 04:13:51;;;;;;;;;;;;;;;;;;5032070;28;19917;-84
2021/12/24 04:16:16;;;;;;;;;;;;;;;;;;5033124;28;20373;-84
2021/12/24 04:26:38;;;;;;;;;;;;;;;;;;5036113;28;20285;-83
2021/12/24 04:29:03;;;;;;;;;;;;;;;;;;5036537;28;20024;-83
2021/12/24 04:31:39;;;;;;;;;;;;;;;;;;5035669;28;20331;-84
2021/12/24 04:34:04;;;;;;;;;;;;;;;;;;5035751;28;19913;-84
2021/12/24 05:08:47;;;;;;;;;;;;;;;;;;5036140;28;19956;-83
2021/12/24 05:11:14;;;;;;;;;;;;;;;;;;5035791;28;19917;-84
2021/12/24 05:13:39;;;;;;;;;;;;;;;;;;5016312;28;19914;-84
2021/12/24 05:16:21;;;;;;;;;;;;;;;;;;5030270;28;20008;-84
2021/12/24 05:19:05;;;;;;;;;;;;;;;;;;5034887;28;20262;-84
2021/12/24 05:21:33;;;;;;;;;;;;;;;;;;5035835;28;19917;-83
2021/12/24 05:24:02;;;;;;;;;;;;;;;;;;5035160;28;20306;-85
2021/12/24 05:26:30;;;;;;;;;;;;;;;;;;5034185;28;19961;-84
2021/12/24 05:28:57;;;;;;;;;;;;;;;;;;5035523;28;20256;-85
2021/12/24 05:31:25;;;;;;;;;;;;;;;;;;5034048;28;19916;-85
2021/12/24 05:33:53;;;;;;;;;;;;;;;;;;5035695;28;20323;-86
2021/12/24 05:36:18;;;;;;;;;;;;;;;;;;5035199;28;20070;-84
2021/12/24 05:38:46;;;;;;;;;;;;;;;;;;5035411;28;20019;-85
2021/12/24 05:41:11;;;;;;;;;;;;;;;;;;5034929;28;19917;-84
2021/12/24 05:43:37;;;;;;;;;;;;;;;;;;5035379;28;20012;-82
2021/12/24 05:46:02;;;;;;;;;;;;;;;;;;5035396;28;19913;-83
2021/12/24 05:48:27;;;;;;;;;;;;;;;;;;5035239;28;19913;-83
2021/12/24 05:50:52;;;;;;;;;;;;;;;;;;5034091;28;19917;-83
2021/12/24 05:53:18;;;;;;;;;;;;;;;;;;5035119;28;20023;-84
2021/12/24 05:55:43;;;;;;;;;;;;;;;;;;5034983;28;19916;-84
2021/12/24 05:58:08;;;;;;;;;;;;;;;;;;5033848;28;19924;-84
2021/12/24 06:00:35;;;;;;;;;;;;;;;;;;5027811;28;19917;-84
2021/12/24 06:03:01;;;;;;;;;;;;;;;;;;5034178;28;19913;-84
2021/12/24 06:05:26;;;;;;;;;;;;;;;;;;5032089;28;20023;-84
2021/12/24 06:07:51;;;;;;;;;;;;;;;;;;5035072;28;19913;-84
2021/12/24 06:10:16;;;;;;;;;;;;;;;;;;5033280;28;19917;-85
2021/12/24 06:12:44;;;;;;;;;;;;;;;;;;5034936;28;19913;-85
2021/12/24 06:15:12;;;;;;;;;;;;;;;;;;5034414;28;19917;-84
2021/12/24 06:17:38;;;;;;;;;;;;;;;;;;5034409;28;20340;-85
2021/12/24 06:20:07;;;;;;;;;;;;;;;;;;5034003;28;19913;-84
2021/12/24 06:22:32;;;;;;;;;;;;;;;;;;5035576;28;20278;-84
2021/12/24 06:24:58;;;;;;;;;;;;;;;;;;5034766;28;20016;-81
2021/12/24 06:27:23;;;;;;;;;;;;;;;;;;5033334;28;19961;-81
2021/12/24 06:29:50;;;;;;;;;;;;;;;;;;5034717;28;20062;-83
2021/12/24 06:32:16;;;;;;;;;;;;;;;;;;5034487;28;19949;-82
2021/12/24 06:34:43;;;;;;;;;;;;;;;;;;5033501;28;19974;-81
2021/12/24 06:37:09;;;;;;;;;;;;;;;;;;5033113;28;19931;-82
2021/12/24 06:39:34;;;;;;;;;;;;;;;;;;5033705;28;19921;-81
2021/12/24 06:42:00;;;;;;;;;;;;;;;;;;5032620;28;19917;-81
2021/12/24 06:44:25;;;;;;;;;;;;;;;;;;5035011;28;19920;-81
2021/12/24 06:46:51;;;;;;;;;;;;;;;;;;5033208;28;19944;-80
2021/12/24 06:49:19;;;;;;;;;;;;;;;;;;5034288;28;20346;-81
2021/12/24 06:51:44;;;;;;;;;;;;;;;;;;5032643;28;19930;-81
2021/12/24 06:54:10;;;;;;;;;;;;;;;;;;5033307;28;20251;-81
2021/12/24 06:56:36;;;;;;;;;;;;;;;;;;5033723;28;19921;-81
2021/12/24 06:59:01;;;;;;;;;;;;;;;;;;5033676;28;19924;-82
2021/12/24 07:01:26;;;;;;;;;;;;;;;;;;5032967;28;20389;-82
2021/12/24 07:03:52;;;;;;;;;;;;;;;;;;5034071;28;19999;-83
2021/12/24 07:06:17;;;;;;;;;;;;;;;;;;5033868;28;19952;-82
2021/12/24 07:08:44;;;;;;;;;;;;;;;;;;5033826;28;20338;-83
2021/12/24 07:11:10;;;;;;;;;;;;;;;;;;5034001;28;19913;-82
2021/12/24 07:13:35;;;;;;;;;;;;;;;;;;5033611;28;19917;-83
2021/12/24 07:16:00;;;;;;;;;;;;;;;;;;5033627;28;19927;-83
2021/12/24 07:18:25;;;;;;;;;;;;;;;;;;5032742;28;19913;-83
2021/12/24 07:20:51;;;;;;;;;;;;;;;;;;5033009;28;19921;-82
2021/12/24 07:23:17;;;;;;;;;;;;;;;;;;5032804;28;19917;-83
2021/12/24 07:25:42;;;;;;;;;;;;;;;;;;5033285;28;19967;-83
2021/12/24 07:28:07;;;;;;;;;;;;;;;;;;5033769;28;20417;-83
2021/12/24 07:30:32;;;;;;;;;;;;;;;;;;5033642;28;19917;-82
2021/12/24 07:32:58;;;;;;;;;;;;;;;;;;5033439;28;20063;-83
2021/12/24 07:35:23;;;;;;;;;;;;;;;;;;5032844;28;20066;-82
2021/12/24 07:37:50;;;;;;;;;;;;;;;;;;5033141;28;19929;-83
2021/12/24 07:40:16;;;;;;;;;;;;;;;;;;5033892;28;19913;-83
2021/12/24 07:42:45;;;;;;;;;;;;;;;;;;5033945;28;19923;-83
2021/12/24 07:45:10;;;;;;;;;;;;;;;;;;5035704;28;20035;-83
2021/12/24 07:47:40;;;;;;;;;;;;;;;;;;5032828;28;20354;-83
2021/12/24 07:50:18;;;;;;;;;;;;;;;;;;5032529;28;19995;-83
2021/12/24 07:52:43;;;;;;;;;;;;;;;;;;5033239;28;20398;-83
2021/12/24 07:55:10;;;;;;;;;;;;;;;;;;5036687;28;19925;-82
2021/12/24 07:57:35;;;;;;;;;;;;;;;;;;5037316;28;20012;-82
2021/12/24 08:00:03;;;;;;;;;;;;;;;;;;5037155;28;20013;-82
2021/12/24 08:02:31;;;;;;;;;;;;;;;;;;5036775;28;20330;-82
2021/12/24 08:04:57;;;;;;;;;;;;;;;;;;5037391;28;20227;-82
2021/12/24 08:07:22;;;;;;;;;;;;;;;;;;5037292;28;19979;-82
2021/12/24 08:09:48;;;;;;;;;;;;;;;;;;5037682;28;20397;-82
2021/12/24 08:12:13;;;;;;;;;;;;;;;;;;5037191;28;19917;-82
2021/12/24 08:14:39;;;;;;;;;;;;;;;;;;5038125;28;20345;-82
2021/12/24 08:17:07;;;;;;;;;;;;;;;;;;5037202;28;19917;-82
2021/12/24 08:19:32;;;;;;;;;;;;;;;;;;5037413;28;20262;-82
2021/12/24 08:21:58;;;;;;;;;;;;;;;;;;5036944;28;19917;-82
2021/12/24 08:24:23;;;;;;;;;;;;;;;;;;5037098;28;19990;-82
2021/12/24 08:26:48;;;;;;;;;;;;;;;;;;5036905;28;19917;-82
2021/12/24 08:29:13;;;;;;;;;;;;;;;;;;5036927;28;19975;-82
2021/12/24 08:31:39;;;;;;;;;;;;;;;;;;5036253;28;19917;-82
2021/12/24 08:34:04;;;;;;;;;;;;;;;;;;5036759;28;19928;-82
2021/12/24 08:36:30;;;;;;;;;;;;;;;;;;5036527;28;19916;-83
2021/12/24 08:38:55;;;;;;;;;;;;;;;;;;5035446;28;19927;-83
2021/12/24 08:41:21;;;;;;;;;;;;;;;;;;5036729;28;19982;-83
2021/12/24 08:43:46;;;;;;;;;;;;;;;;;;5036736;28;19913;-84
2021/12/24 08:46:11;;;;;;;;;;;;;;;;;;5037073;28;19928;-82
2021/12/24 08:48:36;;;;;;;;;;;;;;;;;;5037036;28;19920;-83
2021/12/24 08:51:01;;;;;;;;;;;;;;;;;;5036845;28;19912;-83
2021/12/24 08:53:27;;;;;;;;;;;;;;;;;;5036523;28;19979;-84
2021/12/24 08:55:53;;;;;;;;;;;;;;;;;;5036318;28;19917;-84
2021/12/24 08:58:19;;;;;;;;;;;;;;;;;;5035832;28;19955;-84
2021/12/24 09:00:53;;;;;;;;;;;;;;;;;;5019000;28;19924;-82
2021/12/24 09:03:19;;;;;;;;;;;;;;;;;;5035251;28;19913;-84
2021/12/24 09:05:45;;;;;;;;;;;;;;;;;;5035623;28;19913;-84
2021/12/24 09:08:28;;;;;;;;;;;;;;;;;;5034881;28;19948;-84
2021/12/24 09:10:53;;;;;;;;;;;;;;;;;;5034954;28;19917;-85
2021/12/24 09:13:18;;;;;;;;;;;;;;;;;;5035618;28;20425;-84
2021/12/24 09:15:43;;;;;;;;;;;;;;;;;;5036363;28;20008;-84
2021/12/24 09:18:09;;;;;;;;;;;;;;;;;;5037759;28;20366;-83
2021/12/24 09:20:38;;;;;;;;;;;;;;;;;;5036146;28;20338;-83
2021/12/24 09:23:06;;;;;;;;;;;;;;;;;;5035504;28;20353;-85
2021/12/24 09:25:35;;;;;;;;;;;;;;;;;;5036014;28;19913;-85
2021/12/24 09:28:00;;;;;;;;;;;;;;;;;;5035883;28;19913;-84
2021/12/24 09:30:28;;;;;;;;;;;;;;;;;;5036129;28;19924;-84
2021/12/24 09:32:53;;;;;;;;;;;;;;;;;;5034609;28;20247;-85
2021/12/24 09:35:19;;;;;;;;;;;;;;;;;;5034897;28;20043;-85
2021/12/24 09:37:44;;;;;;;;;;;;;;;;;;5035025;28;19921;-85
2021/12/24 09:40:10;;;;;;;;;;;;;;;;;;5018510;28;19917;-83
2021/12/24 09:42:36;;;;;;;;;;;;;;;;;;5035510;28;20254;-86
2021/12/24 09:45:02;;;;;;;;;;;;;;;;;;5022176;28;19914;-86
2021/12/24 09:47:37;;;;;;;;;;;;;;;;;;;;;
2021/12/24 09:50:04;;;;;;;;;;;;;;;;;;5027046;28;19922;-83
2021/12/24 09:52:30;;;;;;;;;;;;;;;;;;5027897;28;19917;-83
2021/12/24 09:55:05;;;;;;;;;;;;;;;;;;5020732;28;19917;-82
2021/12/24 09:57:30;;;;;;;;;;;;;;;;;;5025487;28;19913;-82
2021/12/24 09:59:55;;;;;;;;;;;;;;;;;;5027068;28;19917;-84
2021/12/24 10:02:28;;;;;;;;;;;;;;;;;;5019418;28;20283;-84
2021/12/24 10:04:53;;;;;;;;;;;;;;;;;;5029825;28;19970;-84
2021/12/24 10:07:24;;;;;;;;;;;;;;;;;;5023921;28;19917;-83
2021/12/24 10:09:50;;;;;;;;;;;;;;;;;;5030315;28;19917;-82
2021/12/24 10:12:15;;;;;;;;;;;;;;;;;;5023676;28;20274;-86
2021/12/24 10:14:42;;;;;;;;;;;;;;;;;;5025193;28;20253;-86
2021/12/24 10:17:16;;;;;;;;;;;;;;;;;;5028115;28;19921;-83
2021/12/24 10:19:42;;;;;;;;;;;;;;;;;;5025002;28;19967;-86
2021/12/24 10:22:07;;;;;;;;;;;;;;;;;;5025682;28;19928;-85
2021/12/24 10:24:33;;;;;;;;;;;;;;;;;;5022650;28;19917;-86
2021/12/24 10:26:59;;;;;;;;;;;;;;;;;;5027745;28;20024;-79
2021/12/24 10:29:31;;;;;;;;;;;;;;;;;;5032252;28;19961;-80
2021/12/24 10:32:07;;;;;;;;;;;;;;;;;;5027509;28;19917;-82
2021/12/24 10:34:33;;;;;;;;;;;;;;;;;;5025599;28;19922;-81
2021/12/24 10:37:01;;;;;;;;;;;;;;;;;;5025878;28;19928;-83
2021/12/24 10:39:33;;;;;;;;;;;;;;;;;;5005030;28;19921;-82
2021/12/24 10:42:16;;;;;;;;;;;;;;;;;;5004181;28;19921;-85
2021/12/24 10:44:45;;;;;;;;;;;;;;;;;;5008695;28;19918;-83
2021/12/24 10:47:13;;;;;;;;;;;;;;;;;;5006658;28;20019;-86
2021/12/24 10:52:14;;;;;;;;;;;;;;;;;;4984217;28;19922;-81
2021/12/24 10:54:46;;;;;;;;;;;;;;;;;;5008470;28;19928;-79
2021/12/24 10:57:15;;;;;;;;;;;;;;;;;;5009554;28;20004;-83
2021/12/24 10:59:49;;;;;;;;;;;;;;;;;;5007684;28;19929;-84
2021/12/24 11:02:17;;;;;;;;;;;;;;;;;;5004954;28;20343;-84
2021/12/24 11:04:42;;;;;;;;;;;;;;;;;;4987609;28;19925;-85
2021/12/24 11:07:31;;;;;;;;;;;;;;;;;;4986046;28;19971;-83
2021/12/24 11:10:12;;;;;;;;;;;;;;;;;;4984636;28;19918;-82
2021/12/24 11:12:44;;;;;;;;;;;;;;;;;;5002623;28;20029;-81
2021/12/24 11:15:19;;;;;;;;;;;;;;;;;;5008050;28;19940;-82
2021/12/24 11:17:44;;;;;;;;;;;;;;;;;;5003930;28;20003;-82
2021/12/24 11:20:10;;;;;;;;;;;;;;;;;;5004452;28;20354;-82
2021/12/24 11:23:08;;;;;;;;;;;;;;;;;;4984444;28;19932;-82
2021/12/24 11:25:35;;;;;;;;;;;;;;;;;;4969781;28;20251;-82
2021/12/24 11:28:02;;;;;;;;;;;;;;;;;;5014641;28;19924;-83
2021/12/24 11:30:31;;;;;;;;;;;;;;;;;;5000073;28;19925;-83
2021/12/24 11:33:03;;;;;;;;;;;;;;;;;;5000292;28;19917;-82
2021/12/24 11:35:34;;;;;;;;;;;;;;;;;;5017825;28;19956;-83
2021/12/24 11:38:00;;;;;;;;;;;;;;;;;;5026288;28;20003;-83
2021/12/24 11:40:27;;;;;;;;;;;;;;;;;;5037419;28;20337;-83
2021/12/24 11:42:58;;;;;;;;;;;;;;;;;;5037279;28;19913;-83
2021/12/24 11:45:24;;;;;;;;;;;;;;;;;;5037509;28;19924;-82
2021/12/24 11:47:56;;;;;;;;;;;;;;;;;;5037315;28;19913;-84
2021/12/24 11:50:22;;;;;;;;;;;;;;;;;;5036452;28;19967;-85
2021/12/24 11:52:48;;;;;;;;;;;;;;;;;;5006275;28;19925;-83
2021/12/24 11:55:14;;;;;;;;;;;;;;;;;;5035734;28;19913;-83
2021/12/24 11:57:49;;;;;;;;;;;;;;;;;;5036519;28;19975;-84
2021/12/24 12:00:14;;;;;;;;;;;;;;;;;;5019158;28;20354;-82
2021/12/24 12:02:45;;;;;;;;;;;;;;;;;;5035931;28;19923;-84
2021/12/24 12:05:32;;;;;;;;;;;;;;;;;;5036053;28;19921;-83
2021/12/24 12:08:16;;;;;;;;;;;;;;;;;;5036806;28;19917;-83
2021/12/24 12:10:49;;;;;;;;;;;;;;;;;;5035975;28;19913;-82
2021/12/24 12:13:33;;;;;;;;;;;;;;;;;;5036602;28;19912;-83
2021/12/24 12:15:58;;;;;;;;;;;;;;;;;;5036379;28;19913;-83
2021/12/24 12:18:32;;;;;;;;;;;;;;;;;;5036696;28;19922;-84
2021/12/24 12:26:52;;;;;;;;;;;;;;;;;;5040701;28;20172;-80
2021/12/24 12:29:29;;;;;;;;;;;;;;;;;;5031171;28;20425;-80
2021/12/24 12:32:02;;;;;;;;;;;;;;;;;;5035110;28;19928;-80
2021/12/24 12:34:37;;;;;;;;;;;;;;;;;;5035567;28;20390;-80
2021/12/24 12:37:22;;;;;;;;;;;;;;;;;;5034830;28;19940;-79
2021/12/24 12:40:13;;;;;;;;;;;;;;;;;;5034395;28;19955;-80
2021/12/24 12:42:58;;;;;;;;;;;;;;;;;;5019857;28;19945;-84
2021/12/24 12:45:32;;;;;;;;;;;;;;;;;;5038092;28;19974;-82
2021/12/24 12:48:00;;;;;;;;;;;;;;;;;;5043533;28;19921;-86
2021/12/24 12:50:26;;;;;;;;;;;;;;;;;;5034339;28;19975;-82
2021/12/24 12:52:58;;;;;;;;;;;;;;;;;;5035090;28;19913;-85
2021/12/24 12:55:28;;;;;;;;;;;;;;;;;;5034789;28;19917;-85
2021/12/24 12:57:56;;;;;;;;;;;;;;;;;;5017987;28;19917;-85
2021/12/24 13:00:27;;;;;;;;;;;;;;;;;;5018226;28;19913;-86
2021/12/24 13:03:01;;;;;;;;;;;;;;;;;;5035697;28;20016;-85
2021/12/24 13:05:33;;;;;;;;;;;;;;;;;;5035414;28;19999;-85
2021/12/24 13:08:11;;;;;;;;;;;;;;;;;;5035466;28;19912;-85
2021/12/24 13:10:38;;;;;;;;;;;;;;;;;;5035419;28;19924;-85
2021/12/24 13:13:04;;;;;;;;;;;;;;;;;;5034711;28;19917;-85
2021/12/24 13:15:29;;;;;;;;;;;;;;;;;;5034609;28;20000;-85
2021/12/24 13:17:59;;;;;;;;;;;;;;;;;;5034232;28;20446;-85
2021/12/24 13:20:45;;;;;;;;;;;;;;;;;;5035095;28;19920;-85
2021/12/24 13:23:18;;;;;;;;;;;;;;;;;;5035605;28;19917;-85
2021/12/24 13:25:43;;;;;;;;;;;;;;;;;;5038874;28;19917;-85
2021/12/24 13:28:08;;;;;;;;;;;;;;;;;;5054658;28;20314;-85
2021/12/24 13:30:33;;;;;;;;;;;;;;;;;;5055738;28;20316;-85
2021/12/24 13:33:14;;;;;;;;;;;;;;;;;;5050386;28;19925;-85
2021/12/24 13:35:42;;;;;;;;;;;;;;;;;;5035432;28;19967;-85
2021/12/24 13:38:34;;;;;;;;;;;;;;;;;;5034155;28;19924;-81
2021/12/24 13:40:59;;;;;;;;;;;;;;;;;;5024675;28;19917;-81
2021/12/24 13:43:24;;;;;;;;;;;;;;;;;;5034112;28;19927;-81
2021/12/24 13:45:52;;;;;;;;;;;;;;;;;;5034750;28;19999;-82
2021/12/24 13:49:08;;;;;;;;;;;;;;;;;;5034606;28;19917;-81
2021/12/24 13:54:34;;;;;;;;;;;;;;;;;;5014967;28;20011;-81
2021/12/24 13:57:08;;;;;;;;;;;;;;;;;;5026087;28;20332;-82
2021/12/24 13:59:34;;;;;;;;;;;;;;;;;;5054491;28;20014;-83
2021/12/24 14:02:17;;;;;;;;;;;;;;;;;;5051688;28;19974;-83
2021/12/24 14:04:45;;;;;;;;;;;;;;;;;;5034466;28;20387;-83
2021/12/24 14:07:10;;;;;;;;;;;;;;;;;;5034628;28;20297;-79
2021/12/24 14:09:39;;;;;;;;;;;;;;;;;;5034902;28;19931;-81
2021/12/24 14:12:06;;;;;;;;;;;;;;;;;;5035113;28;20012;-82
2021/12/24 14:14:51;;;;;;;;;;;;;;;;;;5034191;28;19967;-81
2021/12/24 14:22:19;;;;;;;;;;;;;;;;;;5034950;28;19927;-80
2021/12/24 14:24:51;;;;;;;;;;;;;;;;;;5034766;28;19999;-79
2021/12/24 14:27:17;;;;;;;;;;;;;;;;;;5034699;28;19916;-80
2021/12/24 14:29:43;;;;;;;;;;;;;;;;;;5033076;28;19921;-82
2021/12/24 14:32:16;;;;;;;;;;;;;;;;;;5034616;28;20289;-81
2021/12/24 14:34:45;;;;;;;;;;;;;;;;;;5034696;28;19913;-82
2021/12/24 14:37:32;;;;;;;;;;;;;;;;;;5033675;28;19920;-81
2021/12/24 14:40:06;;;;;;;;;;;;;;;;;;5034550;28;19921;-81
2021/12/24 14:42:40;;;;;;;;;;;;;;;;;;5034605;28;19913;-80
2021/12/24 14:45:16;;;;;;;;;;;;;;;;;;5033108;28;20235;-81
2021/12/24 14:47:42;;;;;;;;;;;;;;;;;;5033628;28;19939;-81
2021/12/24 14:50:12;;;;;;;;;;;;;;;;;;5033667;28;20500;-82
2021/12/24 14:52:38;;;;;;;;;;;;;;;;;;5033740;28;19917;-81
2021/12/24 14:55:22;;;;;;;;;;;;;;;;;;5034369;28;20001;-82
2021/12/24 14:57:55;;;;;;;;;;;;;;;;;;5034459;28;20257;-80
2021/12/24 15:00:22;;;;;;;;;;;;;;;;;;5034318;28;19913;-81
2021/12/24 15:02:48;;;;;;;;;;;;;;;;;;5016174;28;19924;-82
2021/12/24 15:05:26;;;;;;;;;;;;;;;;;;5034170;28;20258;-81
2021/12/24 15:07:51;;;;;;;;;;;;;;;;;;5033481;28;19913;-81
2021/12/24 15:10:18;;;;;;;;;;;;;;;;;;5033921;28;19986;-81
2021/12/24 15:12:46;;;;;;;;;;;;;;;;;;5033582;28;20351;-82
2021/12/24 15:15:12;;;;;;;;;;;;;;;;;;5034154;28;20393;-82
2021/12/24 15:17:38;;;;;;;;;;;;;;;;;;5033879;28;20015;-81
2021/12/24 15:20:04;;;;;;;;;;;;;;;;;;5033187;28;20270;-81
2021/12/24 15:22:29;;;;;;;;;;;;;;;;;;5033433;28;19913;-81
2021/12/24 15:24:54;;;;;;;;;;;;;;;;;;5033696;28;19917;-81
2021/12/24 15:27:19;;;;;;;;;;;;;;;;;;5034071;28;19913;-81
2021/12/24 15:29:44;;;;;;;;;;;;;;;;;;5033384;28;19913;-81
2021/12/24 15:32:12;;;;;;;;;;;;;;;;;;5033053;28;19913;-81
2021/12/24 15:34:37;;;;;;;;;;;;;;;;;;5033950;28;19917;-81
2021/12/24 15:37:03;;;;;;;;;;;;;;;;;;5033842;28;19913;-80
2021/12/24 15:39:28;;;;;;;;;;;;;;;;;;5033572;28;20330;-80
2021/12/24 15:41:55;;;;;;;;;;;;;;;;;;5034020;28;19913;-82
2021/12/24 15:44:20;;;;;;;;;;;;;;;;;;5034009;28;20353;-81
2021/12/24 15:46:46;;;;;;;;;;;;;;;;;;5033809;28;19943;-80
2021/12/24 15:49:16;;;;;;;;;;;;;;;;;;5033920;28;20012;-80
2021/12/24 15:51:41;;;;;;;;;;;;;;;;;;5033816;28;19975;-81
2021/12/24 15:54:06;;;;;;;;;;;;;;;;;;5033584;28;19917;-81
2021/12/24 15:56:34;;;;;;;;;;;;;;;;;;5034181;28;19969;-81
2021/12/24 15:58:59;;;;;;;;;;;;;;;;;;5033092;28;19917;-81
2021/12/24 16:01:24;;;;;;;;;;;;;;;;;;5034365;28;19923;-82
2021/12/24 16:03:49;;;;;;;;;;;;;;;;;;5034454;28;19920;-82
2021/12/24 16:06:20;;;;;;;;;;;;;;;;;;5033719;28;19943;-81
2021/12/24 16:08:48;;;;;;;;;;;;;;;;;;5033844;28;19913;-81
2021/12/24 16:11:13;;;;;;;;;;;;;;;;;;5032708;28;20338;-81
2021/12/24 16:13:38;;;;;;;;;;;;;;;;;;5034270;28;19913;-81
2021/12/24 16:16:06;;;;;;;;;;;;;;;;;;5036438;28;19924;-82
2021/12/24 16:18:32;;;;;;;;;;;;;;;;;;5020193;28;19918;-81
2021/12/24 16:20:57;;;;;;;;;;;;;;;;;;5036215;28;20257;-82
2021/12/24 16:23:23;;;;;;;;;;;;;;;;;;5037429;28;19924;-81
2021/12/24 16:25:48;;;;;;;;;;;;;;;;;;5037043;28;20012;-82
2021/12/24 16:28:13;;;;;;;;;;;;;;;;;;5036632;28;19936;-81
2021/12/24 16:30:39;;;;;;;;;;;;;;;;;;5037184;28;19913;-81
2021/12/24 16:33:04;;;;;;;;;;;;;;;;;;5037066;28;19913;-82
2021/12/24 16:35:32;;;;;;;;;;;;;;;;;;5037213;28;19914;-80
2021/12/24 16:38:00;;;;;;;;;;;;;;;;;;5036872;28;20007;-81
2021/12/24 16:40:25;;;;;;;;;;;;;;;;;;5035691;28;20012;-81
2021/12/24 16:42:52;;;;;;;;;;;;;;;;;;5036780;28;19913;-81
2021/12/24 16:45:22;;;;;;;;;;;;;;;;;;5018521;28;20015;-81
2021/12/24 16:47:48;;;;;;;;;;;;;;;;;;5036975;28;19921;-81
2021/12/24 16:50:13;;;;;;;;;;;;;;;;;;5035854;28;19921;-81
2021/12/24 16:52:41;;;;;;;;;;;;;;;;;;5036002;28;19939;-81
2021/12/24 16:55:06;;;;;;;;;;;;;;;;;;5036760;28;19913;-81
2021/12/24 16:57:32;;;;;;;;;;;;;;;;;;5035585;28;19924;-81
2021/12/24 16:59:57;;;;;;;;;;;;;;;;;;5035477;28;19972;-81
2021/12/24 17:02:23;;;;;;;;;;;;;;;;;;5036101;28;20305;-81
2021/12/24 17:04:51;;;;;;;;;;;;;;;;;;5036392;28;19924;-81
2021/12/24 17:07:16;;;;;;;;;;;;;;;;;;5036432;28;19964;-81
2021/12/24 17:09:41;;;;;;;;;;;;;;;;;;5035505;28;19960;-81
2021/12/24 17:12:10;;;;;;;;;;;;;;;;;;5036618;28;19933;-81
2021/12/24 17:14:40;;;;;;;;;;;;;;;;;;5035602;28;19913;-81
2021/12/24 17:17:05;;;;;;;;;;;;;;;;;;5036938;28;20479;-82
2021/12/24 17:19:31;;;;;;;;;;;;;;;;;;5036094;28;19927;-81
2021/12/24 17:21:58;;;;;;;;;;;;;;;;;;5035089;28;20012;-81
2021/12/24 17:24:25;;;;;;;;;;;;;;;;;;5035002;28;19923;-81
2021/12/24 17:26:53;;;;;;;;;;;;;;;;;;5035317;28;19924;-82
2021/12/24 17:29:19;;;;;;;;;;;;;;;;;;5035964;28;20223;-81
2021/12/24 17:31:44;;;;;;;;;;;;;;;;;;5036119;28;19913;-81
2021/12/24 17:34:12;;;;;;;;;;;;;;;;;;5036182;28;19924;-81
2021/12/24 17:36:37;;;;;;;;;;;;;;;;;;5035692;28;19925;-81
2021/12/24 17:39:02;;;;;;;;;;;;;;;;;;5035604;28;19921;-81
2021/12/24 17:41:28;;;;;;;;;;;;;;;;;;5035677;28;19913;-81
2021/12/24 17:43:56;;;;;;;;;;;;;;;;;;5035858;28;20452;-81
2021/12/24 17:46:21;;;;;;;;;;;;;;;;;;5036170;28;19924;-81
2021/12/24 17:48:49;;;;;;;;;;;;;;;;;;5036434;28;20261;-82
2021/12/24 17:51:14;;;;;;;;;;;;;;;;;;5035787;28;19936;-81
2021/12/24 17:53:42;;;;;;;;;;;;;;;;;;5035528;28;19913;-80
2021/12/24 17:56:07;;;;;;;;;;;;;;;;;;5035434;28;20546;-81
2021/12/24 17:58:33;;;;;;;;;;;;;;;;;;5035390;28;19960;-80
2021/12/24 18:00:58;;;;;;;;;;;;;;;;;;5035492;28;19920;-84
2021/12/24 18:03:23;;;;;;;;;;;;;;;;;;5035467;28;19920;-83
2021/12/24 18:05:53;;;;;;;;;;;;;;;;;;5035075;28;19928;-83
2021/12/24 18:08:18;;;;;;;;;;;;;;;;;;5017997;28;19979;-83
2021/12/24 18:10:43;;;;;;;;;;;;;;;;;;5035215;28;19913;-83
2021/12/24 18:13:13;;;;;;;;;;;;;;;;;;5035334;28;19913;-82
2021/12/24 18:15:39;;;;;;;;;;;;;;;;;;5034323;28;19913;-82
2021/12/24 18:18:04;;;;;;;;;;;;;;;;;;5035070;28;20342;-83
2021/12/24 18:20:30;;;;;;;;;;;;;;;;;;5034885;28;19967;-82
2021/12/24 18:22:55;;;;;;;;;;;;;;;;;;5034892;28;19913;-82
2021/12/24 18:25:20;;;;;;;;;;;;;;;;;;5034983;28;19913;-81
2021/12/24 18:27:46;;;;;;;;;;;;;;;;;;5035131;28;20027;-81
2021/12/24 18:30:11;;;;;;;;;;;;;;;;;;5034142;28;20338;-81
2021/12/24 18:32:36;;;;;;;;;;;;;;;;;;5017451;28;19913;-81
2021/12/24 18:35:02;;;;;;;;;;;;;;;;;;5034384;28;19917;-81
2021/12/24 18:37:33;;;;;;;;;;;;;;;;;;5017226;28;20108;-81
2021/12/24 18:39:58;;;;;;;;;;;;;;;;;;5034044;28;19932;-81
2021/12/24 18:42:28;;;;;;;;;;;;;;;;;;5034618;28;19913;-81
2021/12/24 18:44:54;;;;;;;;;;;;;;;;;;5034772;28;19944;-81
2021/12/24 18:47:20;;;;;;;;;;;;;;;;;;5034551;28;20001;-81
2021/12/24 18:49:45;;;;;;;;;;;;;;;;;;5033738;28;19913;-82